Time;durP1;ratioP1;P1;durP2;ratioP2;P2;SDS_P1;SDS_P2;PMS_P1;PMS_P2;Temp;Humidity;BMP_temperature;BMP_pressure;BME280_temperature;BME280_humidity;BME280_pressure;Samples;Min_cycle;Max_cycle;Signal;HPM_P1;HPM_P2
2024/03/03 00:00:24;;;;;;;;;;;;;;;6.48;100.00;97875.91;4951773;29;19984;-88
2024/03/03 00:02:53;;;;;;;;;;;;;;;6.44;100.00;97882.28;4951779;29;19933;-87
2024/03/03 00:05:18;;;;;;;;;;;;;;;6.49;100.00;97880.25;4952861;29;19995;-90
2024/03/03 00:07:43;;;;;;;;;;;;;;;6.50;100.00;97878.47;4968058;28;20025;-85
2024/03/03 00:10:09;;;;;;;;;;;;;;;6.44;100.00;97892.81;4953439;29;20274;-89
2024/03/03 00:12:34;;;;;;;;;;;;;;;6.49;100.00;97889.91;4950473;29;20022;-87
2024/03/03 00:14:59;;;;;;;;;;;;;;;6.52;100.00;97884.47;4951233;29;19930;-88
2024/03/03 00:17:29;;;;;;;;;;;;;;;6.44;100.00;97897.22;4952662;29;19926;-86
2024/03/03 00:19:54;;;;;;;;;;;;;;;6.47;100.00;97894.44;4969827;28;19929;-92
2024/03/03 00:22:20;;;;;;;;;;;;;;;6.54;100.00;97885.22;4955213;29;19926;-87
2024/03/03 00:24:45;;;;;;;;;;;;;;;6.47;100.00;97902.31;4956709;28;19925;-91
2024/03/03 00:27:10;;;;;;;;;;;;;;;6.49;100.00;97916.22;4955261;29;19977;-87
2024/03/03 00:29:35;;;;;;;;;;;;;;;6.53;100.00;97913.34;4957057;29;20373;-87
2024/03/03 00:32:01;;;;;;;;;;;;;;;6.47;100.00;97911.06;4955332;29;19985;-82
2024/03/03 00:34:26;;;;;;;;;;;;;;;6.46;100.00;97901.47;4954960;29;20054;-90
2024/03/03 00:36:51;;;;;;;;;;;;;;;6.50;100.00;97896.88;4956549;29;19982;-92
2024/03/03 00:39:17;;;;;;;;;;;;;;;6.44;100.00;97884.06;4955952;29;19952;-93
2024/03/03 00:41:42;;;;;;;;;;;;;;;6.46;100.00;97887.47;4956240;28;19929;-94
2024/03/03 00:44:08;;;;;;;;;;;;;;;6.49;100.00;97892.53;4955782;29;20377;-94
2024/03/03 00:46:33;;;;;;;;;;;;;;;6.44;100.00;97882.28;4956650;28;20378;-91
2024/03/03 00:48:58;;;;;;;;;;;;;;;6.39;100.00;97888.75;4955124;29;19918;-92
2024/03/03 00:51:24;;;;;;;;;;;;;;;6.44;100.00;97891.97;4954797;29;20001;-94
2024/03/03 00:53:49;;;;;;;;;;;;;;;6.49;100.00;97895.19;4956480;29;20026;-91
2024/03/03 00:56:20;;;;;;;;;;;;;;;6.41;100.00;97900.03;4954040;29;19926;-91
2024/03/03 00:58:45;;;;;;;;;;;;;;;6.49;100.00;97903.06;4954458;29;19926;-85
2024/03/03 01:01:12;;;;;;;;;;;;;;;6.50;100.00;97902.97;4956396;28;20370;-85
2024/03/03 01:03:38;;;;;;;;;;;;;;;6.44;100.00;97903.31;4955706;28;20406;-89
2024/03/03 01:06:03;;;;;;;;;;;;;;;6.48;100.00;97901.41;4970404;28;20321;-92
2024/03/03 01:08:29;;;;;;;;;;;;;;;6.50;100.00;97897.72;4954839;29;19922;-91
2024/03/03 01:10:54;;;;;;;;;;;;;;;6.45;100.00;97891.88;4954171;29;19926;-89
2024/03/03 01:13:19;;;;;;;;;;;;;;;6.43;100.00;97890.25;4955580;28;20382;-82
2024/03/03 01:15:45;;;;;;;;;;;;;;;6.47;100.00;97886.53;4956070;29;19973;-92
2024/03/03 01:18:10;;;;;;;;;;;;;;;6.45;100.00;97883.16;4970552;28;20294;-88
2024/03/03 01:20:35;;;;;;;;;;;;;;;6.39;100.00;97878.22;4955755;29;20358;-93
2024/03/03 01:23:00;;;;;;;;;;;;;;;6.47;100.00;97882.09;4955875;28;20298;-86
2024/03/03 01:25:32;;;;;;;;;;;;;;;6.45;100.00;97888.41;4955390;29;20263;-90
2024/03/03 01:28:00;;;;;;;;;;;;;;;6.39;100.00;97878.22;4955513;29;19919;-91
2024/03/03 01:30:25;;;;;;;;;;;;;;;6.42;100.00;97883.31;4954785;28;20300;-93
2024/03/03 01:32:51;;;;;;;;;;;;;;;6.51;100.00;97882.78;4954040;29;19923;-92
2024/03/03 01:35:19;;;;;;;;;;;;;;;6.46;100.00;97874.31;4954390;29;19922;-93
2024/03/03 01:37:46;;;;;;;;;;;;;;;6.40;100.00;97877.28;4955422;29;20065;-88
2024/03/03 01:40:22;;;;;;;;;;;;;;;6.45;100.00;97872.63;4955854;28;20390;-93
2024/03/03 01:42:47;;;;;;;;;;;;;;;6.45;100.00;97876.09;4968834;28;19922;-90
2024/03/03 01:45:30;;;;;;;;;;;;;;;6.40;100.00;97875.50;4955437;29;19919;-87
2024/03/03 01:47:56;;;;;;;;;;;;;;;6.39;100.00;97867.72;4955324;28;20025;-86
2024/03/03 01:50:22;;;;;;;;;;;;;;;6.39;100.00;97872.97;4955080;29;20391;-90
2024/03/03 01:52:48;;;;;;;;;;;;;;;6.44;100.00;97871.75;4954287;29;19925;-88
2024/03/03 01:55:16;;;;;;;;;;;;;;;6.42;100.00;97872.78;4954753;29;19926;-91
2024/03/03 01:57:42;;;;;;;;;;;;;;;6.40;100.00;97869.38;4953583;29;19923;-90
2024/03/03 02:00:10;;;;;;;;;;;;;;;6.48;100.00;97872.44;4955199;28;20396;-91
2024/03/03 02:02:35;;;;;;;;;;;;;;;6.44;100.00;97873.53;4954034;29;19922;-91
2024/03/03 02:05:01;;;;;;;;;;;;;;;6.42;100.00;97885.94;4955071;29;19933;-88
2024/03/03 02:07:28;;;;;;;;;;;;;;;6.47;100.00;97881.28;4954980;28;19922;-91
2024/03/03 02:09:53;;;;;;;;;;;;;;;6.52;100.00;97893.22;4969749;28;19922;-92
2024/03/03 02:12:22;;;;;;;;;;;;;;;6.45;100.00;97888.41;4952069;29;20009;-90
2024/03/03 02:14:47;;;;;;;;;;;;;;;6.48;100.00;97883.81;4953538;29;19919;-85
2024/03/03 02:17:13;;;;;;;;;;;;;;;6.50;100.00;97892.47;4955117;29;20322;-93
2024/03/03 02:19:38;;;;;;;;;;;;;;;6.42;100.00;97893.84;4955022;28;19922;-82
2024/03/03 02:22:03;;;;;;;;;;;;;;;6.43;100.00;97899.03;4955097;29;19970;-90
2024/03/03 08:25:03;;;;;;;;;;;;;;;6.34;100.00;97834.59;4956496;28;19929;-91
2024/03/03 08:27:28;;;;;;;;;;;;;;;6.39;100.00;97830.88;4957277;28;19930;-88
2024/03/03 08:29:54;;;;;;;;;;;;;;;6.42;100.00;97841.22;4954940;29;20395;-92
2024/03/03 08:32:20;;;;;;;;;;;;;;;6.38;100.00;97830.00;4955993;29;19915;-91
2024/03/03 08:34:45;;;;;;;;;;;;;;;6.45;100.00;97836.63;4956945;28;19930;-92
2024/03/03 08:37:10;;;;;;;;;;;;;;;6.46;100.00;97840.97;4954482;29;19915;-93
2024/03/03 08:39:36;;;;;;;;;;;;;;;6.41;100.00;97831.63;4955448;28;19930;-92
2024/03/03 08:42:01;;;;;;;;;;;;;;;6.40;100.00;97837.81;4955213;29;19986;-93
2024/03/03 08:44:26;;;;;;;;;;;;;;;6.47;100.00;97836.53;4956856;29;19926;-93
2024/03/03 08:46:51;;;;;;;;;;;;;;;6.40;100.00;97827.28;4956423;29;20441;-92
2024/03/03 08:49:17;;;;;;;;;;;;;;;6.38;100.00;97835.25;4956546;28;20361;-91
2024/03/03 08:51:43;;;;;;;;;;;;;;;6.44;100.00;97826.19;4954030;29;20017;-92
2024/03/03 08:54:08;;;;;;;;;;;;;;;6.41;100.00;97834.25;4955157;29;20016;-92
2024/03/03 08:56:34;;;;;;;;;;;;;;;6.39;100.00;97836.13;4956525;28;19924;-93
2024/03/03 08:58:59;;;;;;;;;;;;;;;6.44;100.00;97834.09;4954999;29;20018;-91
2024/03/03 09:01:28;;;;;;;;;;;;;;;6.43;100.00;97838.50;4955166;29;20017;-91
2024/03/03 09:03:54;;;;;;;;;;;;;;;6.40;100.00;97835.19;4956149;29;19918;-91
2024/03/03 09:06:19;;;;;;;;;;;;;;;6.42;100.00;97842.06;4954996;28;20381;-90
2024/03/03 09:08:47;;;;;;;;;;;;;;;6.45;100.00;97833.16;4956245;29;20352;-90
2024/03/03 09:11:13;;;;;;;;;;;;;;;6.36;100.00;97814.31;4954801;29;20073;-90
2024/03/03 09:13:39;;;;;;;;;;;;;;;6.45;100.00;97820.00;4956298;28;20404;-91
2024/03/03 09:16:05;;;;;;;;;;;;;;;6.47;100.00;97812.88;4956042;28;19919;-90
2024/03/03 09:18:30;;;;;;;;;;;;;;;6.47;100.00;97828.66;4970832;28;20267;-89
2024/03/03 09:20:55;;;;;;;;;;;;;;;6.49;100.00;97829.41;4954741;29;20370;-90
2024/03/03 09:23:21;;;;;;;;;;;;;;;6.51;100.00;97830.16;4953176;29;19934;-91
2024/03/03 09:25:46;;;;;;;;;;;;;;;6.48;100.00;97836.47;4954649;29;19918;-90
2024/03/03 09:28:12;;;;;;;;;;;;;;;6.51;100.00;97824.88;4954372;29;19926;-91
2024/03/03 09:30:37;;;;;;;;;;;;;;;6.58;100.00;97835.94;4954602;29;20377;-91
2024/03/03 09:33:08;;;;;;;;;;;;;;;6.48;100.00;97833.00;4954303;29;19928;-91
2024/03/03 09:35:33;;;;;;;;;;;;;;;6.46;100.00;97834.84;4954148;29;20385;-91
2024/03/03 09:37:58;;;;;;;;;;;;;;;6.50;100.00;97829.31;4952181;29;19918;-90
2024/03/03 09:40:24;;;;;;;;;;;;;;;6.50;100.00;97834.56;4955535;29;19958;-91
2024/03/03 09:42:51;;;;;;;;;;;;;;;6.44;100.00;97828.81;4954494;29;19926;-91
2024/03/03 09:45:19;;;;;;;;;;;;;;;6.45;100.00;97833.16;4970011;28;19973;-91
2024/03/03 09:47:45;;;;;;;;;;;;;;;6.54;100.00;97840.50;4954051;29;20141;-92
2024/03/03 09:50:21;;;;;;;;;;;;;;;6.48;100.00;97833.00;4970245;28;20004;-93
2024/03/03 09:52:51;;;;;;;;;;;;;;;6.47;100.00;97834.75;4953753;28;20001;-92
2024/03/03 09:55:16;;;;;;;;;;;;;;;6.53;100.00;97823.03;4954064;29;20337;-91
2024/03/03 09:57:44;;;;;;;;;;;;;;;6.54;100.00;97822.94;4954769;29;19966;-87
2024/03/03 10:00:10;;;;;;;;;;;;;;;6.47;100.00;97813.69;4955039;29;19925;-92
2024/03/03 10:02:37;;;;;;;;;;;;;;;6.48;100.00;97817.19;4955460;28;19920;-91
2024/03/03 10:05:04;;;;;;;;;;;;;;;6.55;100.00;97814.09;4955953;28;19914;-92
2024/03/03 10:07:34;;;;;;;;;;;;;;;6.52;100.00;97813.44;4968734;28;19919;-91
2024/03/03 10:10:02;;;;;;;;;;;;;;;6.53;100.00;97817.78;4954799;29;19919;-93
2024/03/03 10:12:29;;;;;;;;;;;;;;;6.57;100.00;97824.53;4955382;28;19923;-92
2024/03/03 10:14:55;;;;;;;;;;;;;;;6.59;100.00;97817.44;4954581;29;19928;-93
2024/03/03 10:17:20;;;;;;;;;;;;;;;6.54;100.00;97819.44;4956015;28;20288;-92
2024/03/03 10:19:56;;;;;;;;;;;;;;;6.55;100.00;97811.47;4954509;29;19925;-91
2024/03/03 10:22:22;;;;;;;;;;;;;;;6.55;100.00;97813.25;4952308;29;19929;-90
2024/03/03 10:24:47;;;;;;;;;;;;;;;6.53;100.00;97808.09;4954745;28;20289;-90
2024/03/03 10:27:21;;;;;;;;;;;;;;;6.53;100.00;97812.50;4954496;29;19919;-90
2024/03/03 10:30:01;;;;;;;;;;;;;;;6.56;100.00;97817.59;4954228;29;19922;-90
2024/03/03 10:32:29;;;;;;;;;;;;;;;6.58;100.00;97820.97;4954610;28;20041;-90
2024/03/03 10:34:58;;;;;;;;;;;;;;;6.59;100.00;97822.69;4954296;29;19950;-90
2024/03/03 10:37:24;;;;;;;;;;;;;;;6.54;100.00;97820.31;4967276;28;19926;-88
2024/03/03 10:39:49;;;;;;;;;;;;;;;6.58;100.00;97826.25;4954431;28;20289;-86
2024/03/03 10:42:17;;;;;;;;;;;;;;;6.60;100.00;97816.47;4954479;29;19946;-90
2024/03/03 10:44:43;;;;;;;;;;;;;;;6.57;100.00;97818.44;4953244;29;19925;-90
2024/03/03 10:47:08;;;;;;;;;;;;;;;6.51;100.00;97827.53;4954278;29;20297;-91
2024/03/03 10:49:34;;;;;;;;;;;;;;;6.58;100.00;97825.41;4953194;29;19926;-87
2024/03/03 10:52:02;;;;;;;;;;;;;;;6.59;100.00;97820.06;4953245;29;20067;-86
2024/03/03 10:54:30;;;;;;;;;;;;;;;6.52;100.00;97821.34;4952921;29;20393;-89
2024/03/03 10:58:00;;;;;;;;;;;;;;;6.53;100.00;97830.94;4970528;28;19925;-87
2024/03/03 11:00:05;;;;;;;;;;;;;;;6.47;100.00;97826.84;4939538;28;19918;-90
2024/03/03 11:02:30;;;;;;;;;;;;;;;6.51;100.00;97830.16;4971140;28;19996;-90
2024/03/03 11:05:27;;;;;;;;;;;;;;;6.52;100.00;97827.44;4971532;28;19918;-88
2024/03/03 11:07:52;;;;;;;;;;;;;;;6.52;100.00;97822.16;4910758;28;19946;-88
2024/03/03 13:47:33;;;;;;;;;;;;;;;6.59;100.00;97777.94;4954908;28;19934;-82
2024/03/03 13:50:01;;;;;;;;;;;;;;;6.62;100.00;97785.66;4955641;29;19930;-91
2024/03/03 13:52:30;;;;;;;;;;;;;;;6.65;100.00;97785.50;4952690;29;20428;-92
2024/03/03 13:54:58;;;;;;;;;;;;;;;6.60;100.00;97787.53;4962311;28;19918;-87
2024/03/03 13:57:24;;;;;;;;;;;;;;;6.62;100.00;97796.19;4955137;28;19925;-89
2024/03/03 13:59:58;;;;;;;;;;;;;;;6.70;100.00;97790.47;4954105;28;19926;-89
2024/03/03 14:05:50;;;;;;;;;;;;;;;;;;;;;
2024/03/03 14:11:27;;;;;;;;;;;;;;;6.71;100.00;97790.38;4955040;29;20081;-91
2024/03/03 14:14:15;;;;;;;;;;;;;;;6.67;100.00;97795.91;4952335;29;19945;-82
2024/03/03 14:16:43;;;;;;;;;;;;;;;6.65;100.00;97784.63;4954236;29;20285;-89
2024/03/03 14:19:18;;;;;;;;;;;;;;;6.64;100.00;97788.22;4953646;29;20478;-89
2024/03/03 14:21:50;;;;;;;;;;;;;;;6.68;100.00;97795.81;4954839;28;19923;-90
2024/03/03 14:24:15;;;;;;;;;;;;;;;6.72;100.00;97802.59;4953427;29;19922;-86
2024/03/03 14:26:41;;;;;;;;;;;;;;;6.65;100.00;97801.28;4953444;29;19925;-85
2024/03/03 14:31:41;;;;;;;;;;;;;;;6.70;100.00;97801.84;5021461;23;19934;-87
2024/03/03 14:34:06;;;;;;;;;;;;;;;6.67;100.00;97802.03;4953432;29;19926;-89
2024/03/03 14:36:42;;;;;;;;;;;;;;;6.66;100.00;97810.84;4953375;29;19926;-89
2024/03/03 14:39:11;;;;;;;;;;;;;;;6.68;100.00;97805.50;4952997;28;19926;-90
2024/03/03 14:42:06;;;;;;;;;;;;;;;;;;;;;
2024/03/03 14:44:40;;;;;;;;;;;;;;;6.75;100.00;97800.72;4952422;29;19924;-89
2024/03/03 14:47:10;;;;;;;;;;;;;;;6.75;100.00;97806.84;4952939;29;19969;-90
2024/03/03 14:49:38;;;;;;;;;;;;;;;6.71;100.00;97803.53;4954042;29;19918;-90
2024/03/03 14:52:06;;;;;;;;;;;;;;;6.72;100.00;97807.03;4953749;29;20013;-91
2024/03/03 14:54:33;;;;;;;;;;;;;;;6.78;100.00;97811.06;4969096;28;19922;-91
2024/03/03 14:56:59;;;;;;;;;;;;;;;6.74;100.00;97815.69;4954300;28;19919;-84
2024/03/03 14:59:24;;;;;;;;;;;;;;;6.76;100.00;97812.97;4953161;28;19929;-84
2024/03/03 15:01:49;;;;;;;;;;;;;;;6.81;100.00;97806.50;4954124;29;19925;-90
2024/03/03 15:04:15;;;;;;;;;;;;;;;6.71;100.00;97806.16;4952898;29;19926;-89
2024/03/03 15:06:40;;;;;;;;;;;;;;;6.70;100.00;97814.16;4952813;29;19919;-89
2024/03/03 15:09:05;;;;;;;;;;;;;;;6.76;100.00;97823.47;4952787;29;20822;-88
2024/03/03 15:11:31;;;;;;;;;;;;;;;6.75;100.00;97820.00;4953757;29;19926;-91
2024/03/03 15:13:58;;;;;;;;;;;;;;;6.70;100.00;97819.41;4951645;29;19926;-87
2024/03/03 15:16:31;;;;;;;;;;;;;;;6.75;100.00;97827.91;4953906;28;19974;-90
2024/03/03 15:18:56;;;;;;;;;;;;;;;6.80;100.00;97825.00;4952486;29;19922;-87
2024/03/03 15:21:33;;;;;;;;;;;;;;;6.73;100.00;97829.75;4953618;29;20013;-88
2024/03/03 15:24:23;;;;;;;;;;;;;;;6.71;100.00;97836.91;4968598;28;20333;-91
2024/03/03 15:26:48;;;;;;;;;;;;;;;6.71;100.00;97842.16;4952710;29;19922;-88
2024/03/03 15:29:16;;;;;;;;;;;;;;;6.72;100.00;97839.44;4952565;29;19974;-88
2024/03/03 15:31:53;;;;;;;;;;;;;;;;;;;;;
2024/03/03 15:34:48;;;;;;;;;;;;;;;6.75;100.00;97854.22;4953542;29;20259;-88
2024/03/03 15:37:14;;;;;;;;;;;;;;;6.73;100.00;97862.22;4952659;29;19925;-91
2024/03/03 15:39:39;;;;;;;;;;;;;;;6.76;100.00;97865.59;4952387;29;19923;-88
2024/03/03 15:42:10;;;;;;;;;;;;;;;6.84;100.00;97874.72;4952616;29;19919;-92
2024/03/03 15:44:35;;;;;;;;;;;;;;;6.78;100.00;97874.25;4967220;28;19926;-89
2024/03/03 15:47:01;;;;;;;;;;;;;;;6.82;100.00;97875.78;4954209;29;20503;-85
2024/03/03 15:49:26;;;;;;;;;;;;;;;6.86;100.00;97878.16;4967629;28;19977;-87
2024/03/03 15:51:52;;;;;;;;;;;;;;;6.78;100.00;97879.50;4956382;29;19922;-92
2024/03/03 15:54:24;;;;;;;;;;;;;;;6.79;100.00;97881.22;4956265;29;19918;-91
2024/03/03 15:56:49;;;;;;;;;;;;;;;6.82;100.00;97886.31;4956363;29;19923;-90
2024/03/03 15:59:14;;;;;;;;;;;;;;;6.79;100.00;97883.84;4956253;29;19919;-89
2024/03/03 16:01:40;;;;;;;;;;;;;;;6.75;100.00;97887.59;4957368;28;19924;-85
2024/03/03 16:04:05;;;;;;;;;;;;;;;6.81;100.00;97889.88;4957258;29;19919;-80
2024/03/03 16:06:31;;;;;;;;;;;;;;;6.77;100.00;97891.00;4957415;28;19918;-86
2024/03/03 16:09:00;;;;;;;;;;;;;;;6.75;100.00;97892.84;4955981;29;20008;-91
2024/03/03 16:11:33;;;;;;;;;;;;;;;6.82;100.00;97896.84;4957208;29;20295;-91
2024/03/03 16:14:09;;;;;;;;;;;;;;;6.85;100.00;97899.28;4955253;29;20289;-93
2024/03/03 16:16:39;;;;;;;;;;;;;;;6.81;100.00;97900.41;4955736;29;20428;-92
2024/03/03 16:19:05;;;;;;;;;;;;;;;6.79;100.00;97897.00;4957067;29;20379;-94
2024/03/03 16:21:38;;;;;;;;;;;;;;;6.88;100.00;97905.22;4955736;29;19934;-92
2024/03/03 16:24:29;;;;;;;;;;;;;;;6.90;100.00;97908.59;4957054;28;20362;-91
2024/03/03 16:27:12;;;;;;;;;;;;;;;;;;;;;
2024/03/03 16:29:55;;;;;;;;;;;;;;;;;;;;;
2024/03/03 16:32:30;;;;;;;;;;;;;;;6.89;100.00;97921.84;4956742;29;19933;-93
2024/03/03 16:34:58;;;;;;;;;;;;;;;6.86;100.00;97924.66;4955615;29;20005;-89
2024/03/03 16:37:26;;;;;;;;;;;;;;;6.87;100.00;97921.94;4956664;28;20009;-89
2024/03/03 16:40:00;;;;;;;;;;;;;;;6.91;100.00;97926.13;4955151;29;20465;-89
2024/03/03 16:43:10;;;;;;;;;;;;;;;6.84;100.00;97918.66;4955474;29;19974;-91
2024/03/03 16:45:36;;;;;;;;;;;;;;;6.90;100.00;97921.78;4954734;29;19918;-92
2024/03/03 16:48:10;;;;;;;;;;;;;;;6.84;100.00;97930.03;4934927;29;19919;-89
2024/03/03 16:50:36;;;;;;;;;;;;;;;6.84;100.00;97935.28;4934794;29;19930;-88
2024/03/03 16:53:12;;;;;;;;;;;;;;;6.88;100.00;97934.19;4919199;29;19919;-90
2024/03/03 16:56:00;;;;;;;;;;;;;;;6.91;100.00;97938.44;4934769;29;19925;-90
2024/03/03 16:58:27;;;;;;;;;;;;;;;6.88;100.00;97942.09;4934898;29;20009;-90
2024/03/03 17:01:16;;;;;;;;;;;;;;;6.82;100.00;97945.06;4932824;29;19919;-93
2024/03/03 17:03:41;;;;;;;;;;;;;;;6.82;100.00;97950.31;4934699;29;19923;-93
2024/03/03 17:06:09;;;;;;;;;;;;;;;6.84;100.00;97956.34;4934994;29;20370;-91
2024/03/03 17:08:38;;;;;;;;;;;;;;;6.88;100.00;97964.94;4934116;29;19930;-92
2024/03/03 17:11:03;;;;;;;;;;;;;;;6.84;100.00;97966.03;4934044;29;20351;-87
2024/03/03 17:13:28;;;;;;;;;;;;;;;6.85;100.00;97971.22;4934484;29;20009;-87
2024/03/03 17:15:54;;;;;;;;;;;;;;;6.91;100.00;97978.78;4933501;29;19929;-90
2024/03/03 17:18:19;;;;;;;;;;;;;;;6.87;100.00;97984.28;4923695;29;19977;-91
2024/03/03 17:20:47;;;;;;;;;;;;;;;6.87;100.00;97979.88;4954876;29;19969;-90
2024/03/03 17:23:13;;;;;;;;;;;;;;;6.95;100.00;97989.97;4955926;29;19918;-87
2024/03/03 17:28:18;;;;;;;;;;;;;;;6.89;100.00;97996.44;5207697;23;20397;-91
2024/03/03 17:30:44;;;;;;;;;;;;;;;6.93;100.00;98001.53;4968724;28;20242;-91
2024/03/03 17:33:10;;;;;;;;;;;;;;;6.91;100.00;98001.63;4954588;29;20025;-88
2024/03/03 17:35:35;;;;;;;;;;;;;;;6.87;100.00;98008.00;4954420;29;20083;-92
2024/03/03 17:38:00;;;;;;;;;;;;;;;6.90;100.00;98011.28;4954480;29;19918;-91
2024/03/03 17:40:30;;;;;;;;;;;;;;;6.94;100.00;98025.16;4954627;29;19960;-94
2024/03/03 17:42:56;;;;;;;;;;;;;;;6.90;100.00;98026.25;4955423;29;19989;-91
2024/03/03 17:45:21;;;;;;;;;;;;;;;6.90;100.00;98021.00;4955093;29;20378;-91
2024/03/03 17:47:47;;;;;;;;;;;;;;;6.97;100.00;98035.50;4954333;29;20398;-90
2024/03/03 17:50:12;;;;;;;;;;;;;;;6.90;100.00;98047.31;4954304;29;19919;-91
2024/03/03 17:52:38;;;;;;;;;;;;;;;6.86;100.00;98040.50;4955345;28;19929;-88
2024/03/03 17:55:08;;;;;;;;;;;;;;;6.93;100.00;98047.16;4954177;29;20009;-88
2024/03/03 17:57:35;;;;;;;;;;;;;;;6.92;100.00;98055.97;4955253;28;19918;-91
2024/03/03 18:00:00;;;;;;;;;;;;;;;6.87;100.00;98065.91;4953957;28;19922;-91
2024/03/03 18:02:28;;;;;;;;;;;;;;;6.89;100.00;98062.28;4969254;28;19918;-92
2024/03/03 18:04:54;;;;;;;;;;;;;;;6.94;100.00;98069.06;4955173;28;19925;-91
2024/03/03 18:07:19;;;;;;;;;;;;;;;6.85;100.00;98087.06;4955317;29;19922;-92
2024/03/03 18:10:13;;;;;;;;;;;;;;;6.88;100.00;98083.41;4954788;29;19941;-91
2024/03/03 18:12:39;;;;;;;;;;;;;;;6.88;100.00;98091.31;4953796;28;19923;-92
2024/03/03 18:15:05;;;;;;;;;;;;;;;6.95;100.00;98097.94;4954039;29;19925;-92
2024/03/03 18:20:45;;;;;;;;;;;;;;;6.90;100.00;98099.97;4949801;29;19958;-92
2024/03/03 18:23:10;;;;;;;;;;;;;;;6.89;100.00;98107.03;4953770;29;19922;-90
2024/03/03 18:25:36;;;;;;;;;;;;;;;6.90;100.00;98100.81;4954616;29;20432;-89
2024/03/03 18:33:57;;;;;;;;;;;;;;;6.99;100.00;98120.53;4969882;23;19965;-92
2024/03/03 18:36:22;;;;;;;;;;;;;;;6.98;100.00;98123.25;4963156;28;20121;-92
2024/03/03 18:38:47;;;;;;;;;;;;;;;7.03;100.00;98131.75;4962250;28;19922;-92
2024/03/03 18:41:12;;;;;;;;;;;;;;;7.02;100.00;98130.03;4962622;28;20366;-91
2024/03/03 18:43:38;;;;;;;;;;;;;;;6.95;100.00;98134.78;4963840;28;20052;-92
2024/03/03 18:46:04;;;;;;;;;;;;;;;6.96;100.00;98136.50;4963962;28;19928;-87
2024/03/03 18:48:32;;;;;;;;;;;;;;;6.97;100.00;98135.56;4963659;28;19922;-90
2024/03/03 18:50:57;;;;;;;;;;;;;;;6.98;100.00;98133.78;4961948;28;19929;-93
2024/03/03 18:53:23;;;;;;;;;;;;;;;6.97;100.00;98142.63;4963269;28;20374;-92
2024/03/03 18:55:51;;;;;;;;;;;;;;;7.00;100.00;98145.91;4961837;28;19966;-91
2024/03/03 18:58:16;;;;;;;;;;;;;;;6.94;100.00;98148.91;4963259;28;20266;-91
2024/03/03 19:00:41;;;;;;;;;;;;;;;6.91;100.00;98155.19;4964024;28;19933;-91
2024/03/03 19:03:06;;;;;;;;;;;;;;;6.98;100.00;98155.69;4964560;28;19926;-90
2024/03/03 19:05:32;;;;;;;;;;;;;;;6.97;100.00;98159.25;4965401;28;20352;-91
2024/03/03 19:07:57;;;;;;;;;;;;;;;6.92;100.00;98161.28;4963163;28;19977;-83
2024/03/03 19:10:25;;;;;;;;;;;;;;;6.97;100.00;98175.06;4964415;28;19932;-91
2024/03/03 19:12:50;;;;;;;;;;;;;;;6.96;100.00;98172.53;4942693;29;20013;-92
2024/03/03 19:15:15;;;;;;;;;;;;;;;6.93;100.00;98173.53;4925918;29;20009;-92
2024/03/03 19:17:47;;;;;;;;;;;;;;;6.93;100.00;98173.53;4943667;29;19926;-92
2024/03/03 19:20:12;;;;;;;;;;;;;;;6.98;100.00;98182.03;4925791;29;19923;-92
2024/03/03 19:22:39;;;;;;;;;;;;;;;6.91;100.00;98185.94;4932996;29;20349;-93
2024/03/03 19:27:33;;;;;;;;;;;;;;;6.96;100.00;98191.81;4988260;23;19933;-91
2024/03/03 19:30:00;;;;;;;;;;;;;;;6.91;100.00;98201.75;4977334;28;20069;-91
2024/03/03 19:32:31;;;;;;;;;;;;;;;6.93;100.00;98194.59;4980955;28;20365;-94
2024/03/03 19:34:56;;;;;;;;;;;;;;;6.99;100.00;98189.00;4981094;28;19922;-91
2024/03/03 19:37:22;;;;;;;;;;;;;;;6.93;100.00;98194.59;4983435;28;19925;-89
2024/03/03 19:39:48;;;;;;;;;;;;;;;6.95;100.00;98208.53;4981126;28;19949;-89
2024/03/03 19:42:18;;;;;;;;;;;;;;;7.00;100.00;98208.28;4981568;28;19953;-90
2024/03/03 19:44:43;;;;;;;;;;;;;;;6.95;100.00;98224.31;4981809;28;20297;-90
2024/03/03 19:47:08;;;;;;;;;;;;;;;6.95;100.00;98219.06;4981750;28;19922;-93
2024/03/03 19:49:34;;;;;;;;;;;;;;;7.01;100.00;98224.00;4984020;28;19970;-90
2024/03/03 19:52:04;;;;;;;;;;;;;;;6.96;100.00;98226.03;4983388;28;19929;-90
2024/03/03 19:54:30;;;;;;;;;;;;;;;7.00;100.00;98240.72;4983021;28;20037;-89
2024/03/03 19:56:55;;;;;;;;;;;;;;;7.05;100.00;98236.09;4981863;28;20314;-88
2024/03/03 19:59:21;;;;;;;;;;;;;;;6.96;100.00;98233.09;4981372;28;19922;-89
2024/03/03 20:01:46;;;;;;;;;;;;;;;7.02;100.00;98238.00;4982900;28;19922;-90
2024/03/03 20:04:11;;;;;;;;;;;;;;;7.03;100.00;98240.56;4981359;28;19918;-90
2024/03/03 20:06:37;;;;;;;;;;;;;;;6.96;100.00;98239.22;4982862;28;19922;-89
2024/03/03 20:09:02;;;;;;;;;;;;;;;6.99;100.00;98240.81;4982240;28;19925;-90
2024/03/03 20:11:32;;;;;;;;;;;;;;;7.02;100.00;98246.78;4982409;28;20036;-95
2024/03/03 20:13:58;;;;;;;;;;;;;;;6.96;100.00;98249.75;5120605;23;19935;-94
2024/03/03 20:16:23;;;;;;;;;;;;;;;6.96;100.00;98249.75;4954485;29;19930;-89
2024/03/03 20:18:49;;;;;;;;;;;;;;;7.04;100.00;98254.59;4953907;29;19919;-86
2024/03/03 20:21:15;;;;;;;;;;;;;;;6.96;100.00;98254.16;4952126;29;19922;-88
2024/03/03 20:23:40;;;;;;;;;;;;;;;6.98;100.00;98253.13;4953485;28;19918;-88
2024/03/03 20:26:05;;;;;;;;;;;;;;;7.03;100.00;98255.53;4953400;29;19923;-88
2024/03/03 20:28:31;;;;;;;;;;;;;;;6.97;100.00;98256.69;4953606;29;19922;-88
2024/03/03 20:30:56;;;;;;;;;;;;;;;7.00;100.00;98259.16;4951452;29;19925;-88
2024/03/03 20:33:22;;;;;;;;;;;;;;;7.04;100.00;98263.34;4953323;28;19918;-88
2024/03/03 20:35:49;;;;;;;;;;;;;;;6.98;100.00;98271.56;4953546;28;19922;-87
2024/03/03 20:38:15;;;;;;;;;;;;;;;7.00;100.00;98274.13;4956926;28;19918;-91
2024/03/03 20:40:40;;;;;;;;;;;;;;;7.01;100.00;98281.94;4956877;28;19923;-88
2024/03/03 20:43:06;;;;;;;;;;;;;;;6.99;100.00;98286.44;4956724;28;20381;-89
2024/03/03 20:45:31;;;;;;;;;;;;;;;7.00;100.00;98290.75;4955459;29;19925;-90
2024/03/03 20:47:57;;;;;;;;;;;;;;;7.05;100.00;98299.31;4955079;29;20366;-89
2024/03/03 20:50:22;;;;;;;;;;;;;;;7.04;100.00;98291.47;4956599;28;19918;-86
2024/03/03 20:52:47;;;;;;;;;;;;;;;7.00;100.00;98296.03;4956564;28;19929;-90
2024/03/03 20:55:13;;;;;;;;;;;;;;;7.07;100.00;98301.88;4956565;29;20020;-88
2024/03/03 20:57:39;;;;;;;;;;;;;;;7.03;100.00;98301.16;4955611;29;20017;-87
2024/03/03 21:00:07;;;;;;;;;;;;;;;7.02;100.00;98299.47;4954916;29;19976;-87
2024/03/03 21:02:33;;;;;;;;;;;;;;;7.07;100.00;98300.06;4956374;28;19929;-91
2024/03/03 21:04:58;;;;;;;;;;;;;;;7.09;100.00;98308.72;4956044;28;20065;-90
2024/03/03 21:07:24;;;;;;;;;;;;;;;7.05;100.00;98307.22;4956339;28;20017;-88
2024/03/03 21:09:49;;;;;;;;;;;;;;;7.10;100.00;98309.59;4956243;28;20366;-89
2024/03/03 21:12:15;;;;;;;;;;;;;;;7.09;100.00;98314.00;4955035;29;19937;-88
2024/03/03 21:14:40;;;;;;;;;;;;;;;7.04;100.00;98313.41;4953975;29;19926;-89
2024/03/03 21:17:05;;;;;;;;;;;;;;;7.08;100.00;98314.94;4955909;29;20409;-89
2024/03/03 21:19:31;;;;;;;;;;;;;;;7.07;100.00;98322.94;4956152;29;20326;-88
2024/03/03 21:21:56;;;;;;;;;;;;;;;7.01;100.00;98325.88;4955955;28;20010;-88
2024/03/03 21:24:21;;;;;;;;;;;;;;;7.05;100.00;98336.19;4956149;29;20037;-88
2024/03/03 21:26:47;;;;;;;;;;;;;;;7.11;100.00;98334.16;4954812;29;20326;-88
2024/03/03 21:29:12;;;;;;;;;;;;;;;7.03;100.00;98332.75;4954614;28;20445;-88
2024/03/03 21:31:38;;;;;;;;;;;;;;;7.03;100.00;98332.75;4956081;28;20001;-89
2024/03/03 21:34:04;;;;;;;;;;;;;;;7.06;100.00;98337.84;4955773;28;19930;-89
2024/03/03 21:36:30;;;;;;;;;;;;;;;7.00;100.00;98340.81;4955560;29;20323;-88
2024/03/03 21:39:00;;;;;;;;;;;;;;;6.97;100.00;98338.31;4955741;28;19918;-87
2024/03/03 21:41:26;;;;;;;;;;;;;;;7.02;100.00;98346.88;4955821;29;19918;-89
2024/03/03 21:43:51;;;;;;;;;;;;;;;7.03;100.00;98358.25;4955724;28;19919;-89
2024/03/03 21:46:17;;;;;;;;;;;;;;;6.96;100.00;98362.97;4954481;29;19929;-87
2024/03/03 21:48:42;;;;;;;;;;;;;;;7.02;100.00;98361.78;4935771;29;20302;-89
2024/03/03 21:51:07;;;;;;;;;;;;;;;7.03;100.00;98367.00;4955385;28;19922;-89
2024/03/03 21:53:33;;;;;;;;;;;;;;;6.95;100.00;98365.69;4954683;29;19942;-90
2024/03/03 21:55:59;;;;;;;;;;;;;;;7.00;100.00;98369.78;4954100;29;19926;-90